createdAt,value
2018-01-26T00:01:03.171Z,4.13
2018-01-26T00:03:30.626Z,4.23
2018-01-26T00:05:58.481Z,5.57
2018-01-26T00:08:25.920Z,4.73
2018-01-26T00:10:53.386Z,3.03
2018-01-26T00:13:20.814Z,5.67
2018-01-26T00:15:48.270Z,3.53
2018-01-26T00:18:15.704Z,4.30
2018-01-26T00:20:43.153Z,4.87
2018-01-26T00:23:10.601Z,4.53
2018-01-26T00:25:38.068Z,3.40
2018-01-26T00:28:05.508Z,2.50
2018-01-26T00:30:33.180Z,2.80
2018-01-26T00:33:00.620Z,2.70
2018-01-26T00:35:28.078Z,2.40
2018-01-26T00:37:55.505Z,3.20
2018-01-26T00:40:22.935Z,3.00
2018-01-26T00:42:50.657Z,4.20
2018-01-26T00:45:18.161Z,2.47
2018-01-26T00:47:46.034Z,1.97
2018-01-26T00:50:13.460Z,2.53
2018-01-26T00:52:40.916Z,2.60
2018-01-26T00:55:08.353Z,1.83
2018-01-26T00:57:35.783Z,2.93
2018-01-26T01:00:03.246Z,1.87
2018-01-26T01:02:30.685Z,1.10
2018-01-26T01:04:58.147Z,1.20
2018-01-26T01:07:26.242Z,1.33
2018-01-26T01:09:53.680Z,1.83
2018-01-26T01:12:21.145Z,2.03
2018-01-26T01:14:51.254Z,1.30
2018-01-26T01:17:18.699Z,1.07
2018-01-26T01:19:46.133Z,0.73
2018-01-26T01:22:13.573Z,1.37
2018-01-26T01:24:41.026Z,1.23
2018-01-26T01:27:11.540Z,1.20
2018-01-26T01:29:39.009Z,0.50
2018-01-26T01:32:06.451Z,0.50
2018-01-26T01:34:34.248Z,0.73
2018-01-26T01:37:01.703Z,0.53
2018-01-26T01:39:29.141Z,0.60
2018-01-26T01:41:56.777Z,0.80
2018-01-26T01:44:24.320Z,0.50
2018-01-26T01:46:51.748Z,0.70
2018-01-26T01:49:19.202Z,0.50
2018-01-26T01:51:46.654Z,0.50
2018-01-26T01:54:14.292Z,0.67
2018-01-26T01:56:41.716Z,0.60
2018-01-26T01:59:09.152Z,0.80
2018-01-26T02:01:36.604Z,0.50
2018-01-26T02:04:04.043Z,0.40
2018-01-26T02:06:31.490Z,0.50
2018-01-26T02:08:58.919Z,0.50
2018-01-26T02:11:26.364Z,0.50
2018-01-26T02:13:53.881Z,0.43
2018-01-26T02:16:21.299Z,0.43
2018-01-26T02:18:48.760Z,0.57
2018-01-26T02:21:16.204Z,1.17
2018-01-26T02:23:43.667Z,0.60
2018-01-26T02:26:11.121Z,1.20
2018-01-26T02:28:38.553Z,0.60
2018-01-26T02:31:06.289Z,0.80
2018-01-26T02:33:33.728Z,1.10
2018-01-26T02:36:01.186Z,0.73
2018-01-26T02:38:28.637Z,0.90
2018-01-26T02:40:56.082Z,1.00
2018-01-26T02:43:23.528Z,0.83
2018-01-26T02:45:50.956Z,0.67
2018-01-26T02:48:18.394Z,0.60
2018-01-26T02:50:45.837Z,0.47
2018-01-26T02:53:13.280Z,0.43
2018-01-26T02:55:40.738Z,0.67
2018-01-26T02:58:08.188Z,0.40
2018-01-26T03:00:35.631Z,0.50
2018-01-26T03:03:03.088Z,0.40
2018-01-26T03:05:30.542Z,0.40
2018-01-26T03:07:57.984Z,0.40
2018-01-26T03:10:25.645Z,0.80
2018-01-26T03:12:53.092Z,0.33
2018-01-26T03:15:20.557Z,0.40
2018-01-26T03:17:47.996Z,0.60
2018-01-26T03:20:15.709Z,0.37
2018-01-26T03:22:43.146Z,0.37
2018-01-26T03:25:10.639Z,0.40
2018-01-26T03:27:38.077Z,0.30
2018-01-26T03:30:05.514Z,0.33
2018-01-26T03:32:32.957Z,0.53
2018-01-26T03:35:00.397Z,0.40
2018-01-26T03:37:27.824Z,0.20
2018-01-26T03:39:55.271Z,0.53
2018-01-26T03:42:22.720Z,0.40
2018-01-26T03:44:50.843Z,0.50
2018-01-26T03:47:18.269Z,0.60
2018-01-26T03:49:45.692Z,0.40
2018-01-26T03:52:13.229Z,0.30
2018-01-26T03:54:40.685Z,0.30
2018-01-26T03:57:08.137Z,0.33
2018-01-26T03:59:35.565Z,0.57
2018-01-26T04:02:03.018Z,0.80
2018-01-26T04:04:30.479Z,0.50
2018-01-26T04:06:57.991Z,0.40
2018-01-26T04:09:25.539Z,0.50
2018-01-26T04:11:52.964Z,0.90
2018-01-26T04:14:20.425Z,0.50
2018-01-26T04:16:48.032Z,0.50
2018-01-26T04:19:15.476Z,0.60
2018-01-26T04:21:45.024Z,0.30
2018-01-26T04:24:12.452Z,0.77
2018-01-26T04:26:39.881Z,0.40
2018-01-26T04:29:07.327Z,0.50
2018-01-26T04:31:34.756Z,0.50
2018-01-26T04:34:02.234Z,0.50
2018-01-26T04:36:30.444Z,0.30
2018-01-26T04:38:57.872Z,0.73
2018-01-26T04:41:25.334Z,0.80
2018-01-26T04:43:52.916Z,0.60
2018-01-26T04:46:20.416Z,0.50
2018-01-26T04:48:47.856Z,0.60
2018-01-26T04:51:15.299Z,0.50
2018-01-26T04:53:42.740Z,0.57
2018-01-26T04:56:10.168Z,0.60
2018-01-26T04:58:37.818Z,0.60
2018-01-26T05:01:05.250Z,0.50
2018-01-26T05:03:32.694Z,0.60
2018-01-26T05:06:00.912Z,0.90
2018-01-26T05:08:28.369Z,0.80
2018-01-26T05:10:55.826Z,1.73
2018-01-26T05:13:23.248Z,0.90
2018-01-26T05:15:51.448Z,1.37
2018-01-26T05:18:18.884Z,0.93
2018-01-26T05:20:46.317Z,1.30
2018-01-26T05:23:13.757Z,1.27
2018-01-26T05:25:41.196Z,0.63
2018-01-26T05:28:08.633Z,1.03
2018-01-26T05:30:36.844Z,0.60
2018-01-26T05:33:04.276Z,1.30
2018-01-26T05:35:31.717Z,2.00
2018-01-26T05:37:59.143Z,1.60
2018-01-26T05:40:26.571Z,1.20
2018-01-26T05:42:54.026Z,1.43
2018-01-26T05:45:21.462Z,1.50
2018-01-26T05:47:48.908Z,1.03
2018-01-26T05:50:16.348Z,3.00
2018-01-26T05:52:43.785Z,1.20
2018-01-26T05:55:11.241Z,1.30
2018-01-26T05:57:38.672Z,1.33
2018-01-26T06:00:06.321Z,3.23
2018-01-26T06:02:33.752Z,1.60
2018-01-26T06:05:01.189Z,3.50
2018-01-26T06:07:28.643Z,2.20
2018-01-26T06:09:56.077Z,2.13
2018-01-26T06:12:23.520Z,1.40
2018-01-26T06:14:52.585Z,2.20
2018-01-26T06:17:20.032Z,1.97
2018-01-26T06:19:47.480Z,2.00
2018-01-26T06:22:14.912Z,1.40
2018-01-26T06:24:42.365Z,2.17
2018-01-26T06:27:09.804Z,1.90
2018-01-26T06:29:37.239Z,2.13
2018-01-26T06:32:04.921Z,2.13
2018-01-26T06:34:32.366Z,2.23
2018-01-26T06:37:00.160Z,1.83
2018-01-26T06:39:27.617Z,3.40
2018-01-26T06:41:55.048Z,2.57
2018-01-26T06:44:22.496Z,1.77
2018-01-26T06:46:49.931Z,2.23
2018-01-26T06:49:17.364Z,3.00
2018-01-26T06:51:44.811Z,2.40
2018-01-26T06:54:12.247Z,2.00
2018-01-26T06:56:39.786Z,2.70
2018-01-26T06:59:07.214Z,3.50
2018-01-26T07:01:34.664Z,2.70
2018-01-26T07:04:02.123Z,3.63
2018-01-26T07:06:29.556Z,2.63
2018-01-26T07:08:56.997Z,2.70
2018-01-26T07:11:24.425Z,2.60
2018-01-26T07:13:51.933Z,2.97
2018-01-26T07:16:20.132Z,1.93
2018-01-26T07:18:47.560Z,2.70
2018-01-26T07:21:15.104Z,1.57
2018-01-26T07:23:42.546Z,4.13
2018-01-26T07:26:13.561Z,2.53
2018-01-26T07:28:41.239Z,2.73
2018-01-26T07:31:08.676Z,3.30
2018-01-26T07:33:36.117Z,3.13
2018-01-26T07:36:03.558Z,2.10
2018-01-26T07:38:31.033Z,2.47
2018-01-26T07:40:59.241Z,3.67
2018-01-26T07:43:26.675Z,3.33
2018-01-26T07:45:54.506Z,1.80
2018-01-26T07:48:21.942Z,2.43
2018-01-26T07:50:49.400Z,2.87
2018-01-26T07:53:17.217Z,2.10
2018-01-26T07:55:44.632Z,2.70
2018-01-26T07:58:12.085Z,1.67
2018-01-26T08:00:39.909Z,2.57
2018-01-26T08:03:07.414Z,2.70
2018-01-26T08:05:35.239Z,3.60
2018-01-26T08:08:02.666Z,2.80
2018-01-26T08:10:30.135Z,2.57
2018-01-26T08:12:57.751Z,3.90
2018-01-26T08:15:25.206Z,4.22
2018-01-26T08:17:52.645Z,4.00
2018-01-26T08:20:20.096Z,3.37
2018-01-26T08:22:47.537Z,4.20
2018-01-26T08:25:14.974Z,4.53
2018-01-26T08:27:42.429Z,4.10
2018-01-26T08:32:44.549Z,3.90
2018-01-26T08:35:11.991Z,4.20
2018-01-26T08:37:39.428Z,3.70
2018-01-26T08:40:07.637Z,3.57
2018-01-26T08:42:35.066Z,3.90
2018-01-26T08:45:02.534Z,3.47
2018-01-26T08:47:29.968Z,3.50
2018-01-26T08:49:57.411Z,2.73
2018-01-26T08:52:24.891Z,4.57
2018-01-26T08:54:52.393Z,3.10
2018-01-26T08:57:19.844Z,3.43
2018-01-26T08:59:50.920Z,3.50
2018-01-26T09:02:18.352Z,3.63
2018-01-26T09:04:45.977Z,3.23
2018-01-26T09:07:13.450Z,2.60
2018-01-26T09:09:40.908Z,3.10
2018-01-26T09:12:08.358Z,2.17
2018-01-26T09:14:35.805Z,4.40
2018-01-26T09:17:03.264Z,2.57
2018-01-26T09:19:30.727Z,3.60
2018-01-26T09:21:58.177Z,3.20
2018-01-26T09:24:25.642Z,3.00
2018-01-26T09:26:53.076Z,2.90
2018-01-26T09:29:21.276Z,2.93
2018-01-26T09:31:48.717Z,2.63
2018-01-26T09:34:16.959Z,2.30
2018-01-26T09:36:44.581Z,2.00
2018-01-26T09:39:12.101Z,2.60
2018-01-26T09:41:39.552Z,3.33
2018-01-26T09:44:07.002Z,2.33
2018-01-26T09:46:34.456Z,2.60
2018-01-26T09:49:01.909Z,2.67
2018-01-26T09:51:30.284Z,2.57
2018-01-26T09:53:57.752Z,2.13
2018-01-26T09:56:25.196Z,2.60
2018-01-26T09:58:52.675Z,2.60
2018-01-26T10:01:20.114Z,2.73
2018-01-26T10:03:47.560Z,2.43
2018-01-26T10:06:15.021Z,1.80
2018-01-26T10:08:43.234Z,2.77
2018-01-26T10:11:10.708Z,2.63
2018-01-26T10:13:38.296Z,3.83
2018-01-26T10:16:05.733Z,2.27
2018-01-26T10:18:33.228Z,2.67
2018-01-26T10:21:00.624Z,2.67
2018-01-26T10:23:28.081Z,1.83
2018-01-26T10:25:55.513Z,1.93
2018-01-26T10:28:22.953Z,1.90
2018-01-26T10:30:50.604Z,2.40
2018-01-26T10:33:18.070Z,2.50
2018-01-26T10:35:45.836Z,1.93
2018-01-26T10:38:13.289Z,1.80
2018-01-26T10:40:40.719Z,2.07
2018-01-26T10:43:08.177Z,3.70
2018-01-26T10:45:35.615Z,2.30
2018-01-26T10:48:03.071Z,1.97
2018-01-26T10:50:30.842Z,2.80
2018-01-26T10:52:58.414Z,2.73
2018-01-26T10:55:25.818Z,4.03
2018-01-26T10:57:53.293Z,2.60
2018-01-26T11:00:20.735Z,2.23
2018-01-26T11:02:48.201Z,2.20
2018-01-26T11:05:15.658Z,1.60
2018-01-26T11:07:43.096Z,2.40
2018-01-26T11:10:10.546Z,2.30
2018-01-26T11:12:38.000Z,1.40
2018-01-26T11:15:06.212Z,1.80
2018-01-26T11:17:33.921Z,1.60
2018-01-26T11:20:01.369Z,1.70
2018-01-26T11:22:28.824Z,1.37
2018-01-26T11:24:59.232Z,1.70
2018-01-26T11:27:27.607Z,2.00
2018-01-26T11:29:55.084Z,1.70
2018-01-26T11:32:22.547Z,1.77
2018-01-26T11:34:50.024Z,1.03
2018-01-26T11:37:17.477Z,1.40
2018-01-26T11:39:45.135Z,1.27
2018-01-26T11:42:12.792Z,1.03
2018-01-26T11:44:40.241Z,0.97
2018-01-26T11:47:07.678Z,1.30
2018-01-26T11:49:35.136Z,0.90
2018-01-26T11:52:02.571Z,1.60
2018-01-26T11:54:30.031Z,1.60
2018-01-26T11:56:57.479Z,1.30
2018-01-26T11:59:24.928Z,1.30
2018-01-26T12:01:52.398Z,0.93
2018-01-26T12:04:19.852Z,1.70
2018-01-26T12:06:47.280Z,0.97
2018-01-26T12:09:15.511Z,1.17
2018-01-26T12:11:42.952Z,0.87
2018-01-26T12:14:10.414Z,1.00
2018-01-26T12:16:37.912Z,1.07
2018-01-26T12:19:05.356Z,1.10
2018-01-26T12:21:32.811Z,1.27
2018-01-26T12:24:00.270Z,1.20
2018-01-26T12:26:27.740Z,0.77
2018-01-26T12:28:55.217Z,1.45
2018-01-26T12:31:22.648Z,1.43
2018-01-26T12:33:50.128Z,1.17
2018-01-26T12:36:17.564Z,1.00
2018-01-26T12:38:45.026Z,1.00
2018-01-26T12:41:12.460Z,1.00
2018-01-26T12:43:39.900Z,1.30
2018-01-26T12:46:07.436Z,1.30
2018-01-26T12:48:34.873Z,1.53
2018-01-26T12:51:02.316Z,1.70
2018-01-26T12:53:29.760Z,1.33
2018-01-26T12:55:57.974Z,1.70
2018-01-26T12:58:25.416Z,1.60
2018-01-26T13:00:52.856Z,1.40
2018-01-26T13:03:20.313Z,1.80
2018-01-26T13:05:47.752Z,1.67
2018-01-26T13:08:15.307Z,1.10
2018-01-26T13:10:42.805Z,1.47
2018-01-26T13:13:10.233Z,1.33
2018-01-26T13:15:37.684Z,1.40
2018-01-26T13:18:05.244Z,1.10
2018-01-26T13:20:32.704Z,1.40
2018-01-26T13:23:00.154Z,1.03
2018-01-26T13:25:27.608Z,1.07
2018-01-26T13:27:55.063Z,2.30
2018-01-26T13:30:22.509Z,1.63
2018-01-26T13:32:50.120Z,1.30
2018-01-26T13:35:17.584Z,1.93
2018-01-26T13:37:45.019Z,1.30
2018-01-26T13:40:12.463Z,1.50
2018-01-26T13:42:39.900Z,1.40
2018-01-26T13:45:07.361Z,1.03
2018-01-26T13:47:34.815Z,1.67
2018-01-26T13:50:02.299Z,1.10
2018-01-26T13:52:29.724Z,2.23
2018-01-26T13:54:57.169Z,1.13
2018-01-26T13:57:24.605Z,1.63
2018-01-26T13:59:55.255Z,1.57
2018-01-26T14:02:22.729Z,1.17
2018-01-26T14:04:50.172Z,1.53
2018-01-26T14:07:17.621Z,1.73
2018-01-26T14:09:45.088Z,1.67
2018-01-26T14:12:12.548Z,2.50
2018-01-26T14:14:39.992Z,1.13
2018-01-26T14:17:07.446Z,2.30
2018-01-26T14:19:39.060Z,1.85
2018-01-26T14:22:06.659Z,2.20
2018-01-26T14:24:34.114Z,1.87
2018-01-26T14:27:01.548Z,1.83
2018-01-26T14:29:29.022Z,1.87
2018-01-26T14:31:56.460Z,1.40
2018-01-26T14:34:23.931Z,2.10
2018-01-26T14:36:51.392Z,2.10
2018-01-26T14:39:18.842Z,2.17
2018-01-26T14:41:46.296Z,2.10
2018-01-26T14:44:13.758Z,1.80
2018-01-26T14:46:41.204Z,1.73
2018-01-26T14:49:08.665Z,1.77
2018-01-26T14:51:36.088Z,1.70
2018-01-26T14:54:04.310Z,1.30
2018-01-26T14:56:31.754Z,1.80
2018-01-26T14:58:59.191Z,1.60
2018-01-26T15:01:26.816Z,2.00
2018-01-26T15:03:54.274Z,1.60
2018-01-26T15:06:21.742Z,1.50
2018-01-26T15:08:49.176Z,1.70
2018-01-26T15:11:16.622Z,2.07
2018-01-26T15:13:44.181Z,1.60
2018-01-26T15:16:11.648Z,1.90
2018-01-26T15:18:39.099Z,1.93
2018-01-26T15:21:06.549Z,2.07
2018-01-26T15:23:34.042Z,1.50
2018-01-26T15:26:01.485Z,2.30
2018-01-26T15:28:28.936Z,2.08
2018-01-26T15:30:57.173Z,0.87
2018-01-26T15:33:24.692Z,0.73
2018-01-26T15:35:52.140Z,1.13
2018-01-26T15:38:19.589Z,0.73
2018-01-26T15:40:47.037Z,0.52
2018-01-26T15:43:14.644Z,0.80
2018-01-26T15:45:42.106Z,0.53
2018-01-26T15:48:09.540Z,0.70
2018-01-26T15:50:36.980Z,0.60
2018-01-26T15:53:04.536Z,1.57
2018-01-26T15:55:32.028Z,0.80
2018-01-26T15:57:59.457Z,1.80
2018-01-26T16:00:26.885Z,1.57
2018-01-26T16:02:54.333Z,1.50
2018-01-26T16:05:21.775Z,1.57
2018-01-26T16:07:49.224Z,1.07
2018-01-26T16:10:21.996Z,1.10
2018-01-26T16:12:51.503Z,1.67
2018-01-26T16:15:19.187Z,1.10
2018-01-26T16:17:47.020Z,1.20
2018-01-26T16:20:14.465Z,3.47
2018-01-26T16:22:41.900Z,1.90
2018-01-26T16:25:10.108Z,1.83
2018-01-26T16:27:38.334Z,1.90
2018-01-26T16:30:06.084Z,2.40
2018-01-26T16:32:33.531Z,1.60
2018-01-26T16:35:00.969Z,1.43
2018-01-26T16:37:28.549Z,2.40
2018-01-26T16:39:55.979Z,1.87
2018-01-26T16:42:23.425Z,2.47
2018-01-26T16:44:56.870Z,1.67
2018-01-26T16:47:24.321Z,3.03
2018-01-26T16:49:52.182Z,1.60
2018-01-26T16:52:19.785Z,3.20
2018-01-26T16:54:47.225Z,3.03
2018-01-26T16:57:14.678Z,2.10
2018-01-26T16:59:42.100Z,1.90
2018-01-26T17:02:10.308Z,2.60
2018-01-26T17:04:37.745Z,3.13
2018-01-26T17:07:05.199Z,4.70
2018-01-26T17:09:32.625Z,5.17
2018-01-26T17:12:00.075Z,8.37
2018-01-26T17:14:27.547Z,10.37
2018-01-26T17:16:54.992Z,11.70
2018-01-26T17:19:22.448Z,8.20
2018-01-26T17:21:49.893Z,7.37
2018-01-26T17:24:17.341Z,4.70
2018-01-26T17:26:44.792Z,3.60
2018-01-26T17:29:12.224Z,4.10
2018-01-26T17:31:39.656Z,3.73
2018-01-26T17:34:07.125Z,4.30
2018-01-26T17:36:34.566Z,3.67
2018-01-26T17:39:02.368Z,1.40
2018-01-26T17:41:29.818Z,2.73
2018-01-26T17:43:57.304Z,2.73
2018-01-26T17:46:24.743Z,2.47
2018-01-26T17:48:52.197Z,2.53
2018-01-26T17:51:19.655Z,4.30
2018-01-26T17:53:47.122Z,7.10
2018-01-26T17:56:14.574Z,4.70
2018-01-26T17:58:42.115Z,4.50
2018-01-26T18:01:09.542Z,5.53
2018-01-26T18:03:37.722Z,4.23
2018-01-26T18:06:05.162Z,5.10
2018-01-26T18:08:32.597Z,5.03
2018-01-26T18:11:00.056Z,5.30
2018-01-26T18:13:27.480Z,3.73
2018-01-26T18:15:55.739Z,3.40
2018-01-26T18:18:23.173Z,5.03
2018-01-26T18:20:50.605Z,5.00
2018-01-26T18:23:18.060Z,6.50
2018-01-26T18:25:45.497Z,5.10
2018-01-26T18:28:12.936Z,4.40
2018-01-26T18:30:40.382Z,4.00
2018-01-26T18:33:07.835Z,5.03
2018-01-26T18:35:35.276Z,6.20
2018-01-26T18:38:02.733Z,5.90
2018-01-26T18:40:30.192Z,4.37
2018-01-26T18:42:57.632Z,5.60
2018-01-26T18:45:25.127Z,3.83
2018-01-26T18:47:52.516Z,5.60
2018-01-26T18:50:19.957Z,5.73
2018-01-26T18:52:47.399Z,6.10
2018-01-26T18:55:14.850Z,6.93
2018-01-26T18:57:43.037Z,4.47
2018-01-26T19:00:10.474Z,4.30
2018-01-26T19:02:38.676Z,5.73
2018-01-26T19:05:06.139Z,5.17
2018-01-26T19:07:34.416Z,4.20
2018-01-26T19:10:01.864Z,4.90
2018-01-26T19:12:29.300Z,6.00
2018-01-26T19:14:56.717Z,4.77
2018-01-26T19:17:24.280Z,5.20
2018-01-26T19:19:51.872Z,9.23
2018-01-26T19:22:19.320Z,8.80
2018-01-26T19:24:46.797Z,6.27
2018-01-26T19:27:14.252Z,5.10
2018-01-26T19:29:41.716Z,7.23
2018-01-26T19:32:09.156Z,5.27
2018-01-26T19:34:36.597Z,6.80
2018-01-26T19:37:04.036Z,4.10
2018-01-26T19:39:31.495Z,5.43
2018-01-26T19:41:58.929Z,4.73
2018-01-26T19:44:26.386Z,4.00
2018-01-26T19:46:53.832Z,4.50
2018-01-26T19:49:21.281Z,4.80
2018-01-26T19:51:48.969Z,5.20
2018-01-26T19:54:16.405Z,5.27
2018-01-26T19:56:43.844Z,5.20
2018-01-26T19:59:11.297Z,4.07
2018-01-26T20:01:39.493Z,3.80
2018-01-26T20:04:06.947Z,4.40
2018-01-26T20:06:52.081Z,4.80
2018-01-26T20:09:25.425Z,4.00
2018-01-26T20:11:58.464Z,6.23
2018-01-26T20:14:25.913Z,3.80
2018-01-26T20:16:53.372Z,4.87
2018-01-26T20:19:20.801Z,5.00
2018-01-26T20:21:48.228Z,3.73
2018-01-26T20:24:16.062Z,3.63
2018-01-26T20:26:43.525Z,4.80
2018-01-26T20:29:10.972Z,5.63
2018-01-26T20:31:38.415Z,5.10
2018-01-26T20:34:05.869Z,6.40
2018-01-26T20:36:33.305Z,6.73
2018-01-26T20:39:00.832Z,5.63
2018-01-26T20:41:28.281Z,5.00
2018-01-26T20:43:55.998Z,5.17
2018-01-26T20:46:23.428Z,5.10
2018-01-26T20:48:50.873Z,4.37
2018-01-26T20:51:18.329Z,5.10
2018-01-26T20:53:45.855Z,5.47
2018-01-26T20:56:13.298Z,5.00
2018-01-26T20:58:40.721Z,6.23
2018-01-26T21:01:08.172Z,4.57
2018-01-26T21:03:35.754Z,6.00
2018-01-26T21:06:03.325Z,4.90
2018-01-26T21:08:30.796Z,5.20
2018-01-26T21:10:58.227Z,5.13
2018-01-26T21:13:25.682Z,5.00
2018-01-26T21:15:53.127Z,4.67
2018-01-26T21:18:20.573Z,4.20
2018-01-26T21:20:48.782Z,5.20
2018-01-26T21:23:16.223Z,5.50
2018-01-26T21:25:44.041Z,5.53
2018-01-26T21:28:11.576Z,3.87
2018-01-26T21:30:39.025Z,5.80
2018-01-26T21:33:06.463Z,5.90
2018-01-26T21:35:33.895Z,4.90
2018-01-26T21:38:01.355Z,6.80
2018-01-26T21:40:28.788Z,6.30
2018-01-26T21:42:56.255Z,6.73
2018-01-26T21:45:23.685Z,5.37
2018-01-26T21:47:51.120Z,5.47
2018-01-26T21:50:18.577Z,7.80
2018-01-26T21:52:46.001Z,5.60
2018-01-26T21:55:13.456Z,7.90
2018-01-26T21:57:41.043Z,6.53
2018-01-26T22:00:09.512Z,5.43
2018-01-26T22:02:36.949Z,7.80
2018-01-26T22:05:10.002Z,5.33
2018-01-26T22:07:40.368Z,6.77
2018-01-26T22:10:08.515Z,6.70
2018-01-26T22:12:37.247Z,6.77
2018-01-26T22:15:04.677Z,4.93
2018-01-26T22:17:32.116Z,6.80
2018-01-26T22:19:59.673Z,6.40
2018-01-26T22:22:27.128Z,5.00
2018-01-26T22:24:57.232Z,6.63
2018-01-26T22:27:24.667Z,5.50
2018-01-26T22:29:53.761Z,6.10
2018-01-26T22:32:21.193Z,5.30
2018-01-26T22:34:48.629Z,6.10
2018-01-26T22:37:16.181Z,5.63
2018-01-26T22:39:43.649Z,5.97
2018-01-26T22:42:11.101Z,5.73
2018-01-26T22:44:38.549Z,4.70
2018-01-26T22:47:05.980Z,4.20
2018-01-26T22:49:33.649Z,5.70
2018-01-26T22:52:01.251Z,4.13
2018-01-26T22:54:28.679Z,4.47
2018-01-26T22:56:56.137Z,5.87
2018-01-26T22:59:23.570Z,4.60
2018-01-26T23:01:51.017Z,5.33
2018-01-26T23:04:18.684Z,3.97
2018-01-26T23:06:46.110Z,4.00
2018-01-26T23:09:14.681Z,4.20
2018-01-26T23:11:42.278Z,4.70
2018-01-26T23:14:09.742Z,4.20
2018-01-26T23:16:37.492Z,3.87
2018-01-26T23:19:04.926Z,4.27
2018-01-26T23:21:32.375Z,4.53
2018-01-26T23:23:59.971Z,3.77
2018-01-26T23:26:27.425Z,5.67
2018-01-26T23:28:54.853Z,5.10
2018-01-26T23:31:22.382Z,5.67
2018-01-26T23:33:49.844Z,7.07
2018-01-26T23:36:17.291Z,5.53
2018-01-26T23:38:44.818Z,5.13
2018-01-26T23:41:12.193Z,4.40
2018-01-26T23:43:39.643Z,5.17
2018-01-26T23:46:07.882Z,3.60
2018-01-26T23:48:35.307Z,4.30
2018-01-26T23:51:02.756Z,4.57
2018-01-26T23:53:30.456Z,5.30
2018-01-26T23:55:57.931Z,4.30
2018-01-26T23:58:25.368Z,3.97
